This is the latest recevied weather packets stored in our database for station/object DM4XI-13. If no packets are shown the sender has not sent any weather packets the latest 10 day(s).
| Time | Temp. | Humidity | Pressure | Rain* | Wind** | Luminosity | Snow |
|---|---|---|---|---|---|---|---|
| 1778164193 | 12.78° C | 71% | 1012 hPa | 0 mm | 1.34 m/s, 276° | 113 W/m² | - |
| 1778164132 | 12.78° C | 71% | 1012 hPa | 0 mm | 1.34 m/s, 308° | 121 W/m² | - |
| 1778164071 | 12.78° C | 70% | 1012 hPa | 0 mm | 1.34 m/s, 299° | 136 W/m² | - |
| 1778164010 | 12.78° C | 70% | 1012 hPa | 0 mm | 1.79 m/s, 302° | 147 W/m² | - |
| 1778163949 | 12.78° C | 69% | 1012 hPa | 0 mm | 2.24 m/s, 310° | 150 W/m² | - |
| 1778163888 | 12.78° C | 72% | 1011.9 hPa | 0 mm | 0.45 m/s, 157° | 153 W/m² | - |
| 1778163827 | 12.78° C | 71% | 1011.8 hPa | 0 mm | 1.34 m/s, 276° | 159 W/m² | - |
| 1778163766 | 12.78° C | 71% | 1012 hPa | 0 mm | 0.89 m/s, 207° | 170 W/m² | - |
| 1778163705 | 12.78° C | 71% | 1012 hPa | 0 mm | 0.45 m/s, 230° | 178 W/m² | - |
| 1778163644 | 12.78° C | 71% | 1012 hPa | 0 mm | 1.34 m/s, 263° | 174 W/m² | - |
| 1778163583 | 13.33° C | 70% | 1011.8 hPa | 0 mm | 0.89 m/s, 217° | 156 W/m² | - |
| 1778163522 | 13.33° C | 70% | 1011.8 hPa | 0 mm | 1.34 m/s, 239° | 130 W/m² | - |
| 1778163461 | 13.89° C | 69% | 1012.1 hPa | 0 mm | 2.24 m/s, 265° | 95 W/m² | - |
| 1778163400 | 13.89° C | 68% | 1011.9 hPa | 0 mm | 2.24 m/s, 263° | 75 W/m² | - |
| 1778163339 | 13.89° C | 70% | 1011.9 hPa | 0 mm | 0.45 m/s, 205° | 69 W/m² | - |
| 1778163278 | 13.89° C | 69% | 1012 hPa | 0 mm | 0.45 m/s, 203° | 73 W/m² | - |
| 1778163217 | 13.89° C | 70% | 1012 hPa | 0 mm | 0 m/s | 81 W/m² | - |
| 1778163156 | 13.89° C | 68% | 1011.9 hPa | 0 mm | 1.34 m/s, 239° | 98 W/m² | - |
| 1778163094 | 14.44° C | 68% | 1011.9 hPa | 0 mm | 1.34 m/s, 263° | 116 W/m² | - |
| 1778163033 | 13.89° C | 67% | 1011.8 hPa | 0 mm | 0.89 m/s, 167° | 136 W/m² | - |
| 1778162973 | 13.89° C | 68% | 1011.9 hPa | 0 mm | 1.34 m/s, 215° | 164 W/m² | - |
| 1778162912 | 13.89° C | 69% | 1011.9 hPa | 0 mm | 0.89 m/s, 204° | 238 W/m² | - |
| 1778162851 | 13.89° C | 69% | 1011.9 hPa | 0 mm | 0.45 m/s, 216° | 329 W/m² | - |
| 1778162790 | 13.89° C | 68% | 1011.8 hPa | 0 mm | 0.45 m/s, 246° | 273 W/m² | - |
| 1778162729 | 13.89° C | 69% | 1011.9 hPa | 0 mm | 1.34 m/s, 234° | 275 W/m² | - |
* Rain latest hour (hover to see other rain measurements)
** Current wind speed in m/s (hover to see current wind gust speed)